Time;durP1;ratioP1;P1;durP2;ratioP2;P2;SDS_P1;SDS_P2;PMS_P1;PMS_P2;Temp;Humidity;BMP_temperature;BMP_pressure;BME280_temperature;BME280_humidity;BME280_pressure;Samples;Min_cycle;Max_cycle;Signal;HPM_P1;HPM_P2
2021/04/25 00:00:50;;;;;;;47.42;25.35;;;;;;;;;;4960704;29;20029;-85
2021/04/25 00:03:16;;;;;;;39.25;24.30;;;;;;;;;;4960660;29;20023;-85
2021/04/25 00:05:42;;;;;;;36.78;23.77;;;;;;;;;;4943694;29;20035;-85
2021/04/25 00:08:08;;;;;;;38.00;21.90;;;;;;;;;;4960130;29;20094;-84
2021/04/25 00:10:35;;;;;;;32.92;21.00;;;;;;;;;;4960387;29;20034;-85
2021/04/25 00:13:01;;;;;;;32.58;19.92;;;;;;;;;;4960391;29;20034;-83
2021/04/25 00:15:27;;;;;;;35.78;21.08;;;;;;;;;;4941922;29;20039;-82
2021/04/25 00:17:53;;;;;;;37.30;20.63;;;;;;;;;;4939301;29;20031;-81
2021/04/25 00:20:20;;;;;;;36.97;20.13;;;;;;;;;;4923876;29;20035;-81
2021/04/25 00:22:47;;;;;;;34.10;20.70;;;;;;;;;;4930600;29;20048;-82
2021/04/25 00:25:14;;;;;;;32.45;19.20;;;;;;;;;;4905075;29;20028;-83
2021/04/25 00:31:02;;;;;;;32.65;18.38;;;;;;;;;;4936047;29;20038;-84
2021/04/25 00:33:28;;;;;;;33.92;19.33;;;;;;;;;;4924021;29;20023;-84
2021/04/25 00:35:54;;;;;;;36.70;21.10;;;;;;;;;;4940676;29;20027;-85
2021/04/25 00:38:20;;;;;;;35.58;20.85;;;;;;;;;;4940984;29;20138;-84
2021/04/25 00:40:46;;;;;;;36.72;21.20;;;;;;;;;;4923958;29;20034;-85
2021/04/25 00:43:30;;;;;;;40.55;22.50;;;;;;;;;;4940971;29;20103;-85
2021/04/25 00:45:56;;;;;;;41.40;24.10;;;;;;;;;;4940140;29;20114;-84
2021/04/25 00:48:23;;;;;;;46.03;25.40;;;;;;;;;;4940478;29;20031;-84
2021/04/25 00:50:49;;;;;;;49.95;26.50;;;;;;;;;;4923523;29;20042;-85
2021/04/25 00:53:15;;;;;;;46.72;28.70;;;;;;;;;;4923844;29;20111;-85
2021/04/25 00:55:41;;;;;;;62.25;36.67;;;;;;;;;;4923616;29;20063;-85
2021/04/25 00:58:26;;;;;;;72.28;44.72;;;;;;;;;;4923838;29;20028;-84
2021/04/25 01:00:52;;;;;;;86.03;49.78;;;;;;;;;;4923735;29;20023;-84
2021/04/25 01:03:22;;;;;;;79.80;48.75;;;;;;;;;;4940425;29;20054;-83
2021/04/25 01:05:48;;;;;;;67.45;40.63;;;;;;;;;;4923447;29;20304;-84
2021/04/25 01:08:14;;;;;;;66.18;39.08;;;;;;;;;;4923078;29;20059;-84
2021/04/25 01:10:40;;;;;;;58.50;36.75;;;;;;;;;;4923356;29;20028;-83
2021/04/25 01:13:06;;;;;;;58.78;32.17;;;;;;;;;;4940425;29;20034;-84
2021/04/25 01:15:32;;;;;;;56.65;33.65;;;;;;;;;;4940074;29;20453;-83
2021/04/25 01:17:59;;;;;;;50.28;29.75;;;;;;;;;;4923192;29;20059;-83
2021/04/25 01:20:25;;;;;;;47.88;31.30;;;;;;;;;;4940320;29;20028;-84
2021/04/25 01:22:51;;;;;;;51.05;30.67;;;;;;;;;;4939890;29;20044;-83
2021/04/25 01:25:22;;;;;;;48.03;30.23;;;;;;;;;;4940017;29;20327;-83
2021/04/25 01:27:49;;;;;;;49.97;30.15;;;;;;;;;;4923093;29;20027;-84
2021/04/25 01:30:16;;;;;;;53.83;29.90;;;;;;;;;;4923252;29;20031;-84
2021/04/25 01:32:42;;;;;;;49.20;29.48;;;;;;;;;;4940190;29;20319;-84
2021/04/25 01:35:14;;;;;;;47.25;29.45;;;;;;;;;;4923064;29;20028;-84
2021/04/25 01:37:41;;;;;;;45.47;28.10;;;;;;;;;;4923159;29;20023;-84
2021/04/25 01:40:07;;;;;;;45.30;27.55;;;;;;;;;;4939882;29;20252;-84
2021/04/25 01:42:34;;;;;;;41.00;25.85;;;;;;;;;;4939992;29;20027;-84
2021/04/25 01:45:01;;;;;;;50.10;27.00;;;;;;;;;;4939966;29;20478;-84
2021/04/25 01:47:27;;;;;;;51.25;27.30;;;;;;;;;;4940164;29;20032;-84
2021/04/25 01:49:53;;;;;;;43.30;26.63;;;;;;;;;;4939853;29;20034;-84
2021/04/25 01:52:19;;;;;;;46.28;28.20;;;;;;;;;;4939804;29;20514;-84
2021/04/25 01:54:45;;;;;;;44.47;27.02;;;;;;;;;;4940189;29;20087;-86
2021/04/25 01:57:11;;;;;;;41.10;24.75;;;;;;;;;;4922983;29;20418;-85
2021/04/25 01:59:37;;;;;;;41.30;25.80;;;;;;;;;;4943680;29;20035;-84
2021/04/25 02:02:04;;;;;;;45.92;26.13;;;;;;;;;;4943643;29;20051;-86
2021/04/25 02:04:30;;;;;;;45.25;25.65;;;;;;;;;;4943605;29;20032;-85
2021/04/25 02:06:56;;;;;;;41.40;25.30;;;;;;;;;;4943518;29;20031;-86
2021/04/25 02:09:22;;;;;;;42.63;24.95;;;;;;;;;;4926837;29;20059;-86
2021/04/25 02:11:48;;;;;;;45.10;26.02;;;;;;;;;;4943524;29;20071;-86
2021/04/25 02:14:14;;;;;;;40.38;25.83;;;;;;;;;;4943762;29;20091;-86
2021/04/25 02:16:40;;;;;;;43.65;25.77;;;;;;;;;;4943589;29;20032;-86
2021/04/25 02:19:06;;;;;;;45.58;27.00;;;;;;;;;;4926557;29;20466;-86
2021/04/25 02:21:32;;;;;;;46.15;24.85;;;;;;;;;;4943375;29;20047;-84
2021/04/25 02:23:59;;;;;;;40.58;25.30;;;;;;;;;;4943200;29;20048;-85
2021/04/25 02:26:25;;;;;;;53.05;26.23;;;;;;;;;;4943388;29;20051;-85
2021/04/25 02:31:54;;;;;;;45.45;25.38;;;;;;;;;;4943316;29;20096;-85
2021/04/25 02:34:20;;;;;;;40.28;24.58;;;;;;;;;;4943296;29;20019;-85
2021/04/25 02:36:46;;;;;;;44.08;25.85;;;;;;;;;;4942913;29;20032;-85
2021/04/25 02:39:12;;;;;;;47.35;26.90;;;;;;;;;;4943270;29;20026;-85
2021/04/25 02:41:38;;;;;;;45.35;26.52;;;;;;;;;;4942910;29;20426;-85
2021/04/25 02:44:23;;;;;;;43.63;26.67;;;;;;;;;;4943211;29;20086;-84
2021/04/25 02:46:49;;;;;;;47.20;26.75;;;;;;;;;;4942991;29;20370;-84
2021/04/25 02:49:15;;;;;;;46.78;26.25;;;;;;;;;;4942953;29;20141;-84
2021/04/25 02:51:41;;;;;;;44.95;26.05;;;;;;;;;;4925658;29;20308;-83
2021/04/25 02:54:07;;;;;;;47.08;27.92;;;;;;;;;;4925897;29;20036;-84
2021/04/25 02:56:33;;;;;;;42.88;27.60;;;;;;;;;;4925846;29;20039;-85
2021/04/25 03:02:03;;;;;;;43.83;26.70;;;;;;;;;;4942629;29;20040;-86
2021/04/25 03:04:29;;;;;;;43.03;26.52;;;;;;;;;;4942675;29;20020;-83
2021/04/25 03:06:55;;;;;;;44.15;26.75;;;;;;;;;;4942628;29;20102;-83
2021/04/25 03:09:21;;;;;;;42.22;26.90;;;;;;;;;;4924643;29;20028;-83
2021/04/25 03:11:47;;;;;;;42.17;26.33;;;;;;;;;;4942474;29;20031;-83
2021/04/25 03:14:13;;;;;;;40.10;25.77;;;;;;;;;;4925558;29;20115;-83
2021/04/25 03:16:39;;;;;;;50.38;24.35;;;;;;;;;;4941647;29;20028;-82
2021/04/25 03:19:05;;;;;;;43.92;25.23;;;;;;;;;;4941682;29;20050;-83
2021/04/25 03:21:31;;;;;;;53.50;28.88;;;;;;;;;;4923993;29;20331;-83
2021/04/25 03:23:57;;;;;;;59.33;30.40;;;;;;;;;;4941738;29;20127;-83
2021/04/25 03:26:23;;;;;;;68.05;34.50;;;;;;;;;;4942081;29;20039;-83
2021/04/25 03:28:49;;;;;;;64.75;32.65;;;;;;;;;;4941867;29;20027;-82
2021/04/25 03:31:15;;;;;;;58.88;31.65;;;;;;;;;;4941850;29;20066;-82
2021/04/25 03:33:41;;;;;;;61.97;29.90;;;;;;;;;;4941974;29;20028;-82
2021/04/25 03:36:08;;;;;;;50.17;30.25;;;;;;;;;;4941516;29;20035;-82
2021/04/25 03:38:34;;;;;;;59.15;30.63;;;;;;;;;;4941897;29;20028;-82
2021/04/25 03:41:00;;;;;;;54.47;31.35;;;;;;;;;;4924470;29;20068;-83
2021/04/25 03:46:29;;;;;;;59.58;32.17;;;;;;;;;;4941742;29;20330;-82
2021/04/25 03:48:56;;;;;;;59.15;31.23;;;;;;;;;;4941377;29;20032;-83
2021/04/25 03:51:22;;;;;;;65.72;31.63;;;;;;;;;;4924040;29;20316;-82
2021/04/25 03:53:48;;;;;;;55.67;31.42;;;;;;;;;;4924487;29;20040;-83
2021/04/25 03:56:14;;;;;;;64.40;32.45;;;;;;;;;;4941477;29;20070;-82
2021/04/25 03:58:41;;;;;;;58.05;29.90;;;;;;;;;;4941189;29;20399;-83
2021/04/25 04:01:07;;;;;;;54.58;29.80;;;;;;;;;;4941493;29;20032;-82
2021/04/25 04:03:33;;;;;;;54.72;30.20;;;;;;;;;;4924373;29;20039;-82
2021/04/25 04:05:59;;;;;;;58.40;31.88;;;;;;;;;;4941116;29;20035;-83
2021/04/25 04:08:25;;;;;;;59.33;32.08;;;;;;;;;;4924615;29;20055;-82
2021/04/25 04:10:51;;;;;;;62.40;32.97;;;;;;;;;;4923880;29;20036;-83
2021/04/25 04:16:21;;;;;;;53.58;30.95;;;;;;;;;;4940872;29;20035;-83
2021/04/25 04:18:47;;;;;;;59.00;31.88;;;;;;;;;;4940835;29;20158;-83
2021/04/25 04:21:13;;;;;;;60.55;33.92;;;;;;;;;;4923618;29;20119;-83
2021/04/25 04:23:39;;;;;;;64.00;39.47;;;;;;;;;;4924064;29;20430;-84
2021/04/25 04:26:05;;;;;;;81.40;45.78;;;;;;;;;;4940853;29;20362;-82
2021/04/25 04:31:53;;;;;;;83.63;46.55;;;;;;;;;;4941127;29;20046;-83
2021/04/25 04:34:19;;;;;;;76.07;43.10;;;;;;;;;;4923770;29;20028;-83
2021/04/25 04:36:46;;;;;;;67.38;39.67;;;;;;;;;;4940514;29;20478;-83
2021/04/25 04:39:12;;;;;;;63.75;37.45;;;;;;;;;;4940951;29;20035;-83
2021/04/25 04:41:38;;;;;;;67.75;38.78;;;;;;;;;;4940568;29;20055;-83
2021/04/25 04:44:04;;;;;;;71.20;38.78;;;;;;;;;;4940846;29;20035;-84
2021/04/25 04:46:30;;;;;;;75.30;41.63;;;;;;;;;;4923748;29;20083;-83
2021/04/25 04:48:56;;;;;;;69.40;39.80;;;;;;;;;;4940764;29;20032;-83
2021/04/25 04:51:22;;;;;;;61.90;35.80;;;;;;;;;;4923578;29;20300;-83
2021/04/25 04:53:48;;;;;;;61.88;34.88;;;;;;;;;;4940476;29;20055;-83
2021/04/25 04:56:15;;;;;;;57.33;33.58;;;;;;;;;;4940273;29;20024;-83
2021/04/25 04:58:41;;;;;;;53.33;30.17;;;;;;;;;;4940229;29;20066;-83
2021/04/25 05:01:07;;;;;;;49.65;29.35;;;;;;;;;;4923559;29;20075;-83
2021/04/25 05:03:33;;;;;;;47.55;29.00;;;;;;;;;;4940632;29;20036;-83
2021/04/25 05:05:59;;;;;;;46.95;29.00;;;;;;;;;;4923471;29;20126;-84
2021/04/25 05:08:25;;;;;;;44.00;27.45;;;;;;;;;;4940414;29;20043;-83
2021/04/25 05:10:51;;;;;;;47.72;27.85;;;;;;;;;;4940366;29;20024;-83
2021/04/25 05:13:17;;;;;;;52.17;30.50;;;;;;;;;;4940294;29;20031;-83
2021/04/25 05:15:44;;;;;;;57.38;33.17;;;;;;;;;;4940144;29;20027;-82
2021/04/25 05:18:10;;;;;;;58.75;33.22;;;;;;;;;;4939897;29;20427;-82
2021/04/25 05:20:36;;;;;;;54.13;32.70;;;;;;;;;;4923451;29;20036;-82
2021/04/25 05:23:03;;;;;;;55.63;31.50;;;;;;;;;;4939546;29;20055;-83
2021/04/25 05:25:29;;;;;;;50.13;29.63;;;;;;;;;;4940142;29;20351;-83
2021/04/25 05:27:55;;;;;;;51.00;29.63;;;;;;;;;;4939973;29;20046;-84
2021/04/25 05:30:22;;;;;;;46.75;27.30;;;;;;;;;;4940360;29;20406;-83
2021/04/25 05:32:48;;;;;;;51.22;29.85;;;;;;;;;;4925663;29;20461;-83
2021/04/25 05:35:14;;;;;;;59.67;30.85;;;;;;;;;;4946856;29;20027;-85
2021/04/25 05:37:40;;;;;;;55.80;31.17;;;;;;;;;;4929472;29;20126;-83
2021/04/25 05:40:08;;;;;;;47.35;26.95;;;;;;;;;;4944704;29;20023;-83
2021/04/25 05:42:34;;;;;;;45.45;26.02;;;;;;;;;;4943839;29;20419;-82
2021/04/25 05:45:00;;;;;;;36.83;24.23;;;;;;;;;;4919746;29;20028;-83
2021/04/25 05:47:26;;;;;;;42.83;24.73;;;;;;;;;;4926665;29;20043;-82
2021/04/25 05:49:52;;;;;;;39.90;24.48;;;;;;;;;;4927138;29;20115;-83
2021/04/25 05:52:18;;;;;;;43.17;24.15;;;;;;;;;;4910526;29;20036;-83
2021/04/25 05:54:44;;;;;;;36.85;22.50;;;;;;;;;;4927158;29;20318;-83
2021/04/25 05:57:10;;;;;;;34.70;22.67;;;;;;;;;;4927219;29;20027;-83
2021/04/25 05:59:36;;;;;;;38.92;22.80;;;;;;;;;;4926889;29;20028;-83
2021/04/25 06:02:05;;;;;;;37.63;22.27;;;;;;;;;;4926881;29;20024;-83
2021/04/25 06:04:32;;;;;;;38.60;22.33;;;;;;;;;;4927280;29;20027;-83
2021/04/25 06:06:58;;;;;;;36.13;21.55;;;;;;;;;;4926996;29;20024;-83
2021/04/25 06:09:25;;;;;;;35.67;19.50;;;;;;;;;;4909678;29;20036;-83
2021/04/25 06:11:52;;;;;;;33.20;18.90;;;;;;;;;;4909795;29;20043;-83
2021/04/25 06:14:18;;;;;;;29.92;18.35;;;;;;;;;;4926862;29;20033;-82
2021/04/25 06:16:44;;;;;;;26.38;15.50;;;;;;;;;;4909930;29;20035;-83
2021/04/25 06:19:10;;;;;;;25.95;16.50;;;;;;;;;;4926999;29;20087;-83
2021/04/25 06:21:36;;;;;;;26.20;16.50;;;;;;;;;;4926348;29;20043;-83
2021/04/25 06:24:02;;;;;;;24.00;15.32;;;;;;;;;;4910084;29;20032;-83
2021/04/25 06:26:28;;;;;;;28.88;16.23;;;;;;;;;;4909882;29;20115;-83
2021/04/25 06:28:54;;;;;;;25.73;15.88;;;;;;;;;;4909870;29;20075;-83
2021/04/25 06:31:21;;;;;;;27.10;16.35;;;;;;;;;;4926942;29;20032;-83
2021/04/25 06:33:47;;;;;;;26.38;16.73;;;;;;;;;;4926627;29;20052;-83
2021/04/25 06:36:14;;;;;;;27.02;15.10;;;;;;;;;;4926867;29;20032;-83
2021/04/25 06:38:40;;;;;;;25.15;15.77;;;;;;;;;;4910069;29;20089;-83
2021/04/25 06:41:06;;;;;;;26.30;15.57;;;;;;;;;;4926633;29;20030;-83
2021/04/25 06:43:33;;;;;;;20.08;14.48;;;;;;;;;;4926466;29;20039;-80
2021/04/25 06:45:59;;;;;;;38.70;23.23;;;;;;;;;;4923004;29;20032;-82
2021/04/25 06:48:26;;;;;;;28.65;17.40;;;;;;;;;;4906727;29;20455;-82
2021/04/25 06:50:52;;;;;;;25.20;15.57;;;;;;;;;;4923692;29;20036;-82
2021/04/25 06:53:18;;;;;;;25.25;13.95;;;;;;;;;;4923253;29;20055;-83
2021/04/25 06:55:44;;;;;;;19.95;13.77;;;;;;;;;;4923422;29;20028;-83
2021/04/25 06:58:10;;;;;;;27.17;15.10;;;;;;;;;;4923315;29;20024;-82
2021/04/25 07:00:36;;;;;;;20.00;12.45;;;;;;;;;;4923462;29;20020;-84
2021/04/25 07:03:02;;;;;;;23.15;12.30;;;;;;;;;;4923284;29;20319;-83
2021/04/25 07:05:28;;;;;;;24.60;14.57;;;;;;;;;;4923506;29;20067;-82
2021/04/25 07:07:56;;;;;;;23.30;13.43;;;;;;;;;;4923236;29;20024;-82
2021/04/25 07:10:23;;;;;;;18.95;11.50;;;;;;;;;;4923492;29;20075;-83
2021/04/25 07:12:49;;;;;;;25.25;12.90;;;;;;;;;;4923281;29;20087;-83
2021/04/25 07:15:15;;;;;;;22.75;13.75;;;;;;;;;;4906057;29;20047;-82
2021/04/25 07:17:41;;;;;;;22.45;11.75;;;;;;;;;;4906170;29;20024;-82
2021/04/25 07:20:10;;;;;;;28.85;15.23;;;;;;;;;;4923094;29;20072;-81
2021/04/25 07:22:36;;;;;;;20.33;12.25;;;;;;;;;;4905504;29;20048;-82
2021/04/25 07:25:03;;;;;;;25.77;11.75;;;;;;;;;;4922871;29;20036;-82
2021/04/25 07:27:29;;;;;;;19.90;10.35;;;;;;;;;;4905766;29;20043;-82
2021/04/25 07:29:55;;;;;;;18.00;11.35;;;;;;;;;;4905989;29;20036;-82
2021/04/25 07:32:21;;;;;;;19.75;11.63;;;;;;;;;;4905920;29;20031;-82
2021/04/25 07:34:47;;;;;;;20.35;11.45;;;;;;;;;;4922725;29;20115;-82
2021/04/25 07:37:14;;;;;;;18.75;10.70;;;;;;;;;;4905518;29;20036;-82
2021/04/25 07:39:40;;;;;;;21.10;11.30;;;;;;;;;;4922673;29;20474;-82
2021/04/25 07:42:06;;;;;;;22.92;11.02;;;;;;;;;;4922818;29;20152;-82
2021/04/25 07:44:51;;;;;;;20.40;10.35;;;;;;;;;;4922463;29;20025;-82
2021/04/25 07:47:17;;;;;;;22.35;10.48;;;;;;;;;;4922401;29;20028;-82
2021/04/25 07:49:43;;;;;;;19.80;10.32;;;;;;;;;;4922570;29;20083;-82
2021/04/25 07:52:09;;;;;;;20.42;11.50;;;;;;;;;;4922376;29;20036;-81
2021/04/25 07:54:35;;;;;;;30.52;12.98;;;;;;;;;;4922403;29;20064;-81
2021/04/25 07:57:01;;;;;;;16.48;9.52;;;;;;;;;;4904942;29;20035;-82
2021/04/25 07:59:27;;;;;;;20.33;9.70;;;;;;;;;;4904993;29;20038;-83
2021/04/25 08:01:53;;;;;;;16.50;9.57;;;;;;;;;;4921951;29;20040;-82
2021/04/25 08:04:20;;;;;;;15.00;8.27;;;;;;;;;;4922098;29;20032;-81
2021/04/25 08:06:46;;;;;;;13.20;8.75;;;;;;;;;;4921963;29;20104;-81
2021/04/25 08:09:12;;;;;;;14.35;7.72;;;;;;;;;;4921848;29;20035;-82
2021/04/25 08:11:38;;;;;;;20.50;10.10;;;;;;;;;;4904466;29;20068;-81
2021/04/25 08:14:05;;;;;;;18.52;8.50;;;;;;;;;;4921970;29;20028;-81
2021/04/25 08:16:31;;;;;;;13.80;7.88;;;;;;;;;;4921872;29;20024;-81
2021/04/25 08:18:57;;;;;;;13.82;7.97;;;;;;;;;;4905009;29;20319;-81
2021/04/25 08:21:24;;;;;;;17.92;8.25;;;;;;;;;;4904402;29;20056;-81
2021/04/25 08:23:50;;;;;;;18.52;8.90;;;;;;;;;;4921455;29;20085;-81
2021/04/25 08:26:16;;;;;;;15.98;9.57;;;;;;;;;;4921661;29;20325;-81
2021/04/25 08:28:42;;;;;;;19.27;9.10;;;;;;;;;;4921531;29;20032;-81
2021/04/25 08:31:08;;;;;;;15.35;8.57;;;;;;;;;;4921682;29;20031;-81
2021/04/25 08:33:35;;;;;;;14.43;8.43;;;;;;;;;;4921155;29;20028;-81
2021/04/25 08:36:01;;;;;;;15.35;8.80;;;;;;;;;;4921094;29;20036;-81
2021/04/25 08:38:27;;;;;;;17.27;9.43;;;;;;;;;;4921684;29;20035;-81
2021/04/25 08:40:53;;;;;;;14.18;7.82;;;;;;;;;;4904688;29;20032;-81
2021/04/25 08:43:19;;;;;;;16.77;8.30;;;;;;;;;;4904121;29;20043;-82
2021/04/25 08:45:46;;;;;;;18.05;8.82;;;;;;;;;;4921342;29;20052;-81
2021/04/25 08:48:13;;;;;;;18.05;8.85;;;;;;;;;;4921513;29;20031;-81
2021/04/25 08:50:40;;;;;;;14.23;8.27;;;;;;;;;;4921288;29;20036;-82
2021/04/25 08:53:06;;;;;;;17.55;8.13;;;;;;;;;;4921257;29;20047;-82
2021/04/25 08:55:33;;;;;;;19.88;10.32;;;;;;;;;;4921213;29;20063;-81
2021/04/25 08:57:59;;;;;;;15.90;9.07;;;;;;;;;;4921038;29;20028;-82
2021/04/25 09:00:25;;;;;;;27.30;13.55;;;;;;;;;;4921062;29;20116;-82
2021/04/25 09:02:53;;;;;;;20.90;9.73;;;;;;;;;;4921125;29;20024;-82
2021/04/25 09:05:19;;;;;;;18.20;8.93;;;;;;;;;;4920806;29;20025;-82
2021/04/25 09:07:58;;;;;;;17.50;10.50;;;;;;;;;;4920378;29;20028;-83
2021/04/25 09:10:38;;;;;;;20.08;9.27;;;;;;;;;;4921306;29;20094;-82
2021/04/25 09:13:26;;;;;;;15.43;8.30;;;;;;;;;;4904138;29;20028;-82
2021/04/25 09:15:54;;;;;;;16.33;8.25;;;;;;;;;;4920791;29;20118;-82
2021/04/25 09:18:33;;;;;;;20.02;8.93;;;;;;;;;;4904433;29;20029;-82
2021/04/25 09:21:06;;;;;;;20.67;9.20;;;;;;;;;;4904216;29;20024;-82
2021/04/25 09:23:32;;;;;;;16.42;10.00;;;;;;;;;;4930153;29;20119;-82
2021/04/25 09:26:01;;;;;;;15.07;8.52;;;;;;;;;;4949199;29;20035;-82
2021/04/25 09:28:28;;;;;;;13.45;8.52;;;;;;;;;;4947554;29;20419;-82
2021/04/25 09:31:04;;;;;;;16.38;7.53;;;;;;;;;;4947540;29;20026;-82
2021/04/25 09:33:49;;;;;;;16.35;8.32;;;;;;;;;;4946664;29;20027;-82
2021/04/25 09:36:20;;;;;;;14.38;7.93;;;;;;;;;;4949704;29;20055;-82
2021/04/25 09:38:46;;;;;;;17.83;9.00;;;;;;;;;;4941819;29;20054;-81
2021/04/25 09:41:24;;;;;;;17.38;8.00;;;;;;;;;;4958960;29;20102;-82
2021/04/25 09:43:50;;;;;;;15.52;8.23;;;;;;;;;;4958871;29;20027;-82
2021/04/25 09:46:17;;;;;;;15.73;8.27;;;;;;;;;;4958488;29;20031;-82
2021/04/25 09:48:43;;;;;;;16.45;8.13;;;;;;;;;;4941742;29;20070;-81
2021/04/25 09:51:22;;;;;;;19.27;8.00;;;;;;;;;;4958639;29;20039;-82
2021/04/25 09:53:55;;;;;;;17.15;9.70;;;;;;;;;;4958524;29;20035;-82
2021/04/25 09:56:22;;;;;;;29.50;16.40;;;;;;;;;;4958695;29;20418;-83
2021/04/25 09:58:58;;;;;;;25.95;14.85;;;;;;;;;;4941562;29;20075;-82
2021/04/25 10:01:26;;;;;;;27.13;15.38;;;;;;;;;;4959072;29;20027;-83
2021/04/25 10:03:52;;;;;;;23.70;12.75;;;;;;;;;;4958762;29;20058;-83
2021/04/25 10:06:20;;;;;;;31.55;19.25;;;;;;;;;;4958468;29;20026;-82
2021/04/25 10:08:50;;;;;;;32.42;16.10;;;;;;;;;;4958946;29;20050;-83
2021/04/25 10:11:17;;;;;;;34.20;17.48;;;;;;;;;;4958674;29;20031;-82
2021/04/25 10:13:47;;;;;;;17.60;10.48;;;;;;;;;;4958773;29;20034;-83
2021/04/25 10:16:13;;;;;;;25.30;14.80;;;;;;;;;;4958719;29;20027;-83
2021/04/25 10:18:39;;;;;;;13.60;7.70;;;;;;;;;;4942207;29;20031;-83
2021/04/25 10:21:05;;;;;;;15.63;9.45;;;;;;;;;;4962171;29;20019;-82
2021/04/25 10:23:32;;;;;;;16.67;9.82;;;;;;;;;;4962033;29;20047;-82
2021/04/25 10:25:58;;;;;;;54.53;24.40;;;;;;;;;;4962135;29;20054;-83
2021/04/25 10:28:30;;;;;;;25.20;15.30;;;;;;;;;;4962257;29;20099;-83
2021/04/25 10:31:01;;;;;;;17.42;8.30;;;;;;;;;;4961929;29;20030;-83
2021/04/25 10:33:46;;;;;;;34.47;16.00;;;;;;;;;;4961996;29;20034;-82
2021/04/25 10:36:12;;;;;;;23.25;13.60;;;;;;;;;;4961817;29;20039;-81
2021/04/25 10:38:39;;;;;;;21.42;11.50;;;;;;;;;;4961841;29;20074;-82
2021/04/25 10:41:18;;;;;;;17.70;10.10;;;;;;;;;;4944783;29;20031;-82
2021/04/25 10:44:05;;;;;;;29.38;14.50;;;;;;;;;;4962015;29;20019;-82
2021/04/25 10:46:54;;;;;;;25.30;13.18;;;;;;;;;;4944636;29;20023;-82
2021/04/25 10:49:29;;;;;;;24.73;13.35;;;;;;;;;;4961672;29;20339;-82
2021/04/25 10:52:15;;;;;;;81.30;39.53;;;;;;;;;;4961779;28;20035;-82
2021/04/25 10:55:01;;;;;;;108.57;50.75;;;;;;;;;;4961397;28;20094;-82
2021/04/25 10:57:27;;;;;;;52.80;23.77;;;;;;;;;;4961293;29;20456;-82
2021/04/25 10:59:53;;;;;;;64.55;29.00;;;;;;;;;;4961589;29;20306;-83
2021/04/25 11:02:39;;;;;;;22.60;12.70;;;;;;;;;;4961899;29;20019;-83
2021/04/25 11:05:06;;;;;;;34.60;18.38;;;;;;;;;;4961268;28;20426;-82
2021/04/25 11:07:44;;;;;;;65.18;33.67;;;;;;;;;;4961557;29;20038;-83
2021/04/25 11:10:10;;;;;;;22.27;12.95;;;;;;;;;;4961300;29;20456;-82
2021/04/25 11:12:37;;;;;;;37.25;22.25;;;;;;;;;;4944181;29;20031;-83
2021/04/25 11:15:42;;;;;;;22.13;9.68;;;;;;;;;;4961124;29;20023;-83
2021/04/25 11:18:28;;;;;;;34.80;16.90;;;;;;;;;;4849272;29;20468;-82
2021/04/25 11:20:54;;;;;;;25.08;12.88;;;;;;;;;;4810238;29;20039;-82
2021/04/25 11:23:32;;;;;;;19.25;10.07;;;;;;;;;;4794132;29;20090;-82
2021/04/25 11:25:58;;;;;;;17.73;8.60;;;;;;;;;;4794960;29;20091;-82
2021/04/25 11:28:43;;;;;;;17.00;10.43;;;;;;;;;;4810031;29;20106;-82
2021/04/25 11:31:29;;;;;;;16.80;9.77;;;;;;;;;;4809214;29;20027;-82
2021/04/25 11:33:55;;;;;;;16.75;9.15;;;;;;;;;;4809968;29;20133;-83
2021/04/25 11:36:39;;;;;;;13.38;7.32;;;;;;;;;;4809676;29;20115;-82
2021/04/25 11:39:06;;;;;;;15.07;9.35;;;;;;;;;;4794204;29;20031;-82
2021/04/25 11:41:32;;;;;;;30.95;15.40;;;;;;;;;;4809724;29;20043;-82
2021/04/25 11:43:59;;;;;;;26.80;14.75;;;;;;;;;;4793973;29;20423;-82
2021/04/25 11:46:32;;;;;;;33.85;18.35;;;;;;;;;;4794247;29;20404;-82
2021/04/25 11:49:00;;;;;;;35.58;17.45;;;;;;;;;;4839234;29;20057;-82
2021/04/25 11:51:26;;;;;;;16.20;9.05;;;;;;;;;;4849056;29;20049;-82
2021/04/25 11:53:52;;;;;;;24.23;14.20;;;;;;;;;;4864536;29;20068;-82
2021/04/25 11:56:36;;;;;;;26.45;13.30;;;;;;;;;;4864222;29;20030;-82
2021/04/25 11:59:09;;;;;;;20.10;12.63;;;;;;;;;;4937089;29;20032;-82
2021/04/25 12:01:36;;;;;;;22.38;8.98;;;;;;;;;;4941374;29;20030;-82
2021/04/25 12:04:02;;;;;;;25.15;14.77;;;;;;;;;;4941196;29;20066;-83
2021/04/25 12:06:44;;;;;;;27.67;15.07;;;;;;;;;;4940068;28;20024;-82
2021/04/25 12:09:10;;;;;;;13.43;8.15;;;;;;;;;;4940069;28;20023;-82
2021/04/25 12:11:36;;;;;;;17.88;8.77;;;;;;;;;;4941241;29;20024;-82
2021/04/25 12:14:15;;;;;;;13.38;7.68;;;;;;;;;;4940990;29;20098;-83
2021/04/25 12:16:41;;;;;;;16.88;9.95;;;;;;;;;;4940050;28;20086;-82
2021/04/25 12:19:18;;;;;;;18.13;9.35;;;;;;;;;;4940972;29;20024;-82
2021/04/25 12:21:44;;;;;;;14.18;7.18;;;;;;;;;;4941887;29;20292;-83
2021/04/25 12:24:10;;;;;;;25.30;13.25;;;;;;;;;;4960142;29;20031;-83
2021/04/25 12:26:39;;;;;;;19.08;11.20;;;;;;;;;;4959917;29;20110;-83
2021/04/25 12:29:05;;;;;;;13.13;8.68;;;;;;;;;;4959871;29;20042;-83
2021/04/25 12:31:44;;;;;;;17.95;10.63;;;;;;;;;;4960025;29;20422;-83
2021/04/25 12:34:17;;;;;;;17.83;8.45;;;;;;;;;;4959775;29;20061;-83
2021/04/25 12:36:50;;;;;;;15.65;10.13;;;;;;;;;;4959987;29;20027;-84
2021/04/25 12:39:17;;;;;;;13.48;7.93;;;;;;;;;;4959945;29;20027;-83
2021/04/25 12:41:44;;;;;;;12.27;8.98;;;;;;;;;;4959626;28;20027;-83
2021/04/25 12:44:11;;;;;;;18.77;10.77;;;;;;;;;;4958988;28;20031;-83
2021/04/25 12:46:37;;;;;;;20.08;8.65;;;;;;;;;;4959531;29;20042;-83
2021/04/25 12:49:11;;;;;;;21.20;13.88;;;;;;;;;;4959559;29;20521;-83
2021/04/25 12:51:43;;;;;;;16.25;10.50;;;;;;;;;;4959448;29;20067;-83
2021/04/25 12:54:21;;;;;;;15.02;8.80;;;;;;;;;;4942308;29;20039;-83
2021/04/25 12:56:53;;;;;;;13.32;8.38;;;;;;;;;;4959199;28;20061;-83
2021/04/25 12:59:33;;;;;;;18.95;10.13;;;;;;;;;;4959517;29;20286;-83
2021/04/25 13:01:59;;;;;;;25.02;14.10;;;;;;;;;;4959408;29;20031;-83
2021/04/25 13:04:28;;;;;;;19.75;10.80;;;;;;;;;;4959526;29;20078;-83
2021/04/25 13:07:15;;;;;;;12.73;7.05;;;;;;;;;;4959124;28;20078;-83
2021/04/25 13:09:42;;;;;;;14.43;7.82;;;;;;;;;;4958991;28;20111;-82
2021/04/25 13:12:21;;;;;;;13.75;7.07;;;;;;;;;;4959024;29;20023;-83
2021/04/25 13:17:27;;;;;;;11.80;7.38;;;;;;;;;;4959075;29;20039;-84
2021/04/25 13:19:53;;;;;;;11.13;6.78;;;;;;;;;;4959078;29;20407;-84
2021/04/25 13:22:20;;;;;;;12.20;7.32;;;;;;;;;;4958895;29;20102;-83
2021/04/25 13:24:46;;;;;;;11.18;7.13;;;;;;;;;;4958963;29;20038;-83
2021/04/25 13:27:14;;;;;;;14.65;6.82;;;;;;;;;;4959028;29;20038;-84
2021/04/25 13:29:40;;;;;;;13.93;9.05;;;;;;;;;;4943235;29;20446;-83
2021/04/25 13:32:06;;;;;;;12.27;7.28;;;;;;;;;;4939927;29;20042;-83
2021/04/25 13:34:33;;;;;;;12.40;8.05;;;;;;;;;;4939915;29;20023;-83
2021/04/25 13:36:59;;;;;;;12.55;8.73;;;;;;;;;;4922953;29;20415;-83
2021/04/25 13:39:25;;;;;;;25.77;14.90;;;;;;;;;;4939701;29;20407;-83
2021/04/25 13:41:51;;;;;;;16.83;8.70;;;;;;;;;;4940003;29;20027;-83
2021/04/25 13:44:18;;;;;;;14.23;8.50;;;;;;;;;;4922105;29;20035;-83
2021/04/25 13:46:45;;;;;;;15.75;8.68;;;;;;;;;;4939523;29;20107;-83
2021/04/25 13:49:11;;;;;;;15.13;8.48;;;;;;;;;;4922472;29;20031;-84
2021/04/25 13:51:38;;;;;;;13.95;8.68;;;;;;;;;;4939466;29;20040;-84
2021/04/25 13:54:05;;;;;;;15.60;8.32;;;;;;;;;;4923747;29;20032;-83
2021/04/25 13:56:31;;;;;;;24.30;14.40;;;;;;;;;;4926706;29;20110;-83
2021/04/25 13:58:57;;;;;;;16.30;11.07;;;;;;;;;;4943505;29;20016;-83
2021/04/25 14:01:24;;;;;;;14.27;8.80;;;;;;;;;;4943421;29;20024;-83
2021/04/25 14:03:50;;;;;;;17.08;8.82;;;;;;;;;;4943351;29;20375;-83
2021/04/25 14:06:16;;;;;;;12.90;8.35;;;;;;;;;;4943222;29;20028;-83
2021/04/25 14:08:43;;;;;;;16.27;8.57;;;;;;;;;;4935225;29;20040;-83
2021/04/25 14:11:10;;;;;;;16.15;8.32;;;;;;;;;;4924062;29;20028;-83
2021/04/25 14:13:36;;;;;;;18.90;8.48;;;;;;;;;;4931258;29;20409;-82
2021/04/25 14:16:03;;;;;;;34.15;21.23;;;;;;;;;;4928506;29;20051;-82
2021/04/25 14:18:30;;;;;;;17.38;11.15;;;;;;;;;;4925040;29;20032;-84
2021/04/25 14:20:57;;;;;;;23.80;9.30;;;;;;;;;;4924148;29;20546;-84
2021/04/25 14:23:24;;;;;;;13.82;8.32;;;;;;;;;;4923780;29;20056;-83
2021/04/25 14:25:50;;;;;;;44.25;26.33;;;;;;;;;;4907099;29;20032;-84
2021/04/25 14:28:16;;;;;;;18.35;10.55;;;;;;;;;;4907281;29;20075;-84
2021/04/25 14:30:42;;;;;;;15.77;9.80;;;;;;;;;;4923909;29;20071;-83
2021/04/25 14:33:08;;;;;;;14.20;7.90;;;;;;;;;;4923931;29;20035;-83
2021/04/25 14:35:34;;;;;;;16.90;9.32;;;;;;;;;;4907840;29;20024;-82
2021/04/25 14:38:01;;;;;;;16.67;9.20;;;;;;;;;;4923565;29;20052;-84
2021/04/25 14:40:28;;;;;;;17.23;10.13;;;;;;;;;;4923503;29;20032;-83
2021/04/25 14:42:54;;;;;;;15.95;9.20;;;;;;;;;;4923722;29;20028;-83
2021/04/25 14:45:21;;;;;;;32.35;16.27;;;;;;;;;;4923913;29;20028;-83
2021/04/25 14:47:49;;;;;;;18.40;11.13;;;;;;;;;;4923588;29;20079;-83